Terminal Aerodrome Forecast
Issued by NWS Kansas City/Pleasant Hill, MO

Home | Current Version | Previous Version | Text Only | Print | Product List | Glossary On
Versions: 1 2 3 4 5 6 7 8 9 10 11
000
FTUS43 KEAX 101120
TAFMCI
TAF
KMCI 101120Z 1012/1112 25012KT P6SM SKC
     FM101500 30012KT P6SM FEW250
     FM110200 VRB05KT P6SM SKC
     FM110800 22007KT P6SM SCT250=

USA.gov is the U.S. government's official web portal to all federal, state and local government web resources and services.